Time;durP1;ratioP1;P1;durP2;ratioP2;P2;SDS_P1;SDS_P2;PMS_P1;PMS_P2;Temp;Humidity;BMP_temperature;BMP_pressure;BME280_temperature;BME280_humidity;BME280_pressure;Samples;Min_cycle;Max_cycle;Signal;HPM_P1;HPM_P2
2022/09/22 00:01:50;;;;;;;;;10.75;10.50;;;;;15.81;38.20;101762.91;4959262;28;45378;-67
2022/09/22 00:04:16;;;;;;;;;10.25;8.75;;;;;15.77;38.24;101761.19;4973773;28;45321;-67
2022/09/22 00:06:46;;;;;;;;;10.50;10.50;;;;;15.74;38.09;101761.28;4979238;28;55467;-67
2022/09/22 00:09:13;;;;;;;;;10.25;9.25;;;;;15.73;38.41;101759.53;4979426;28;45370;-67
2022/09/22 00:11:41;;;;;;;;;11.50;10.75;;;;;15.70;38.67;101759.59;4980045;28;45349;-67
2022/09/22 00:14:26;;;;;;;;;17.00;12.25;;;;;15.66;38.26;101752.59;4979346;28;45255;-67
2022/09/22 00:16:54;;;;;;;;;10.25;9.25;;;;;15.67;38.29;101760.53;4979518;28;46163;-67
2022/09/22 00:19:25;;;;;;;;;12.25;10.50;;;;;15.62;38.15;101757.06;4981128;28;45365;-68
2022/09/22 00:21:51;;;;;;;;;13.00;10.75;;;;;15.63;38.41;101761.47;4982810;28;45349;-68
2022/09/22 00:24:19;;;;;;;;;12.75;11.00;;;;;15.57;38.55;101754.53;4964417;28;45541;-68
2022/09/22 00:26:44;;;;;;;;;12.00;11.50;;;;;15.56;38.56;101750.13;4982664;28;45390;-68
2022/09/22 00:29:11;;;;;;;;;13.00;11.50;;;;;15.51;38.34;101741.41;4981539;28;65601;-68
2022/09/22 00:31:40;;;;;;;;;12.50;11.50;;;;;15.53;38.75;101749.31;4983056;28;45250;-68
2022/09/22 00:34:07;;;;;;;;;11.00;9.75;;;;;15.50;38.59;101750.25;4981658;28;45422;-68
2022/09/22 00:36:33;;;;;;;;;6.25;6.00;;;;;15.48;38.60;101744.09;4965123;28;46277;-68
2022/09/22 00:38:58;;;;;;;;;13.00;12.00;;;;;15.47;39.01;101754.72;4982231;28;45373;-68
2022/09/22 00:41:27;;;;;;;;;9.50;9.25;;;;;15.45;38.58;101749.47;4954467;28;45386;-68
2022/09/22 00:44:43;;;;;;;;;13.50;12.25;;;;;15.42;38.90;101746.84;4979658;28;45539;-68
2022/09/22 00:47:33;;;;;;;;;9.75;9.75;;;;;15.38;38.95;101751.34;4946820;28;46164;-68
2022/09/22 00:50:01;;;;;;;;;9.25;9.25;;;;;15.34;38.67;101740.84;4982266;28;45461;-68
2022/09/22 00:52:39;;;;;;;;;10.00;9.00;;;;;15.36;38.96;101749.63;4982555;28;45405;-68
2022/09/22 00:55:11;;;;;;;;;10.50;9.00;;;;;15.34;38.55;101748.78;4981996;28;45386;-68
2022/09/22 00:57:39;;;;;;;;;9.50;9.00;;;;;15.32;38.78;101750.56;4982064;28;45513;-68
2022/09/22 01:00:07;;;;;;;;;7.75;7.75;;;;;15.26;39.28;101747.13;4981977;28;45379;-68
2022/09/22 01:02:33;;;;;;;;;9.50;9.50;;;;;15.28;38.77;101752.41;4982231;28;45590;-68
2022/09/22 01:04:58;;;;;;;;;12.25;11.00;;;;;15.25;38.85;101742.72;4946444;28;45720;-68
2022/09/22 01:07:28;;;;;;;;;9.50;8.50;;;;;15.24;38.75;101748.97;4974515;28;45402;-68
2022/09/22 01:09:54;;;;;;;;;14.25;11.50;;;;;15.17;39.04;101739.38;4981921;28;45471;-68
2022/09/22 01:12:22;;;;;;;;;11.75;10.25;;;;;15.19;39.07;101741.97;4982075;28;45300;-68
2022/09/22 01:15:00;;;;;;;;;13.00;9.00;;;;;15.19;39.29;101742.84;4981903;28;45244;-68
2022/09/22 01:17:55;;;;;;;;;9.75;9.75;;;;;15.18;39.52;101741.13;4981662;28;46099;-68
2022/09/22 01:20:26;;;;;;;;;9.75;9.75;;;;;15.14;39.52;101742.06;4981738;28;45322;-67
2022/09/22 01:23:19;;;;;;;;;8.75;8.75;;;;;15.12;39.38;101743.88;4981769;28;45274;-66
2022/09/22 01:26:22;;;;;;;;;14.50;10.75;;;;;15.10;39.20;101738.56;4981705;28;45228;-67
2022/09/22 01:29:22;;;;;;;;;10.00;8.75;;;;;15.06;39.35;101734.25;4981092;28;46147;-67
2022/09/22 01:32:12;;;;;;;;;7.75;7.00;;;;;15.05;39.40;101727.19;4980944;28;45200;-67
2022/09/22 01:34:55;;;;;;;;;9.25;9.25;;;;;15.02;39.52;101724.63;4961073;28;45380;-67
2022/09/22 01:37:42;;;;;;;;;9.75;9.25;;;;;15.01;39.31;101722.00;4979404;28;45433;-67
2022/09/22 01:40:16;;;;;;;;;8.00;7.50;;;;;14.95;39.37;101722.97;4981290;28;45353;-67
2022/09/22 01:43:00;;;;;;;;;8.50;8.25;;;;;14.95;39.31;101725.63;4981487;28;45388;-68
2022/09/22 01:45:29;;;;;;;;;11.50;10.25;;;;;14.91;39.59;101724.78;4981431;28;45450;-67
2022/09/22 01:48:08;;;;;;;;;11.00;10.00;;;;;14.92;39.63;101729.19;4981527;28;45319;-67
2022/09/22 01:50:41;;;;;;;;;8.25;8.25;;;;;14.90;40.02;101732.75;4964090;28;46320;-67
2022/09/22 01:53:11;;;;;;;;;9.00;9.00;;;;;14.87;39.83;101731.03;4981169;28;45165;-67
2022/09/22 01:55:41;;;;;;;;;10.50;8.00;;;;;14.87;39.68;101735.47;4981455;28;45422;-67
2022/09/22 01:58:19;;;;;;;;;8.25;8.25;;;;;14.81;39.45;101720.56;4980979;28;45248;-67
2022/09/22 02:00:59;;;;;;;;;9.25;9.25;;;;;14.82;39.66;101726.72;4981168;28;45291;-67
2022/09/22 02:03:40;;;;;;;;;8.25;8.25;;;;;14.78;39.98;101723.25;4981107;28;45287;-67
2022/09/22 02:06:11;;;;;;;;;10.75;9.75;;;;;14.77;39.87;101729.44;4981255;28;45390;-66
2022/09/22 02:08:45;;;;;;;;;9.00;9.00;;;;;14.74;39.60;101730.38;4981218;28;45252;-67
2022/09/22 02:11:15;;;;;;;;;11.25;11.25;;;;;14.74;39.70;101730.38;4980986;28;45557;-67
2022/09/22 02:13:41;;;;;;;;;12.25;11.00;;;;;14.71;39.70;101726.91;4963379;28;45416;-67
2022/09/22 02:16:08;;;;;;;;;12.25;10.75;;;;;14.69;39.87;101726.94;4981013;28;45537;-67
2022/09/22 02:18:52;;;;;;;;;10.50;9.50;;;;;14.64;40.09;101723.44;4981174;28;45336;-67
2022/09/22 02:21:19;;;;;;;;;9.50;8.75;;;;;14.65;40.29;101724.34;4979227;28;45262;-66
2022/09/22 02:23:47;;;;;;;;;10.25;9.50;;;;;14.62;40.45;101719.94;4980826;28;45216;-67
2022/09/22 02:26:17;;;;;;;;;11.50;11.00;;;;;14.60;39.85;101719.97;4980902;28;45483;-67
2022/09/22 02:28:43;;;;;;;;;10.00;9.25;;;;;14.55;40.31;101718.28;4980349;28;45416;-67
2022/09/22 02:31:10;;;;;;;;;11.50;8.75;;;;;14.54;40.25;101725.34;4980712;28;46153;-67
2022/09/22 02:33:39;;;;;;;;;14.75;12.75;;;;;14.54;40.28;101712.13;4980673;28;45262;-67
2022/09/22 02:36:30;;;;;;;;;12.50;11.00;;;;;14.52;40.59;101726.28;4968225;28;45279;-67
2022/09/22 02:39:22;;;;;;;;;12.00;10.00;;;;;14.50;40.60;101722.78;4980363;28;45182;-66
2022/09/22 02:42:05;;;;;;;;;11.00;10.25;;;;;14.47;40.39;101716.63;4980217;28;45561;-67
2022/09/22 02:44:49;;;;;;;;;11.00;11.00;;;;;14.43;40.48;101714.94;4980726;28;45429;-67
2022/09/22 02:47:26;;;;;;;;;12.00;10.50;;;;;14.42;40.47;101712.31;4980606;28;45274;-67
2022/09/22 02:49:52;;;;;;;;;10.50;10.50;;;;;14.40;40.62;101708.81;4980430;28;45386;-67
2022/09/22 02:52:21;;;;;;;;;10.25;10.25;;;;;14.40;40.37;101714.09;4963127;28;47266;-66
2022/09/22 02:54:46;;;;;;;;;11.00;11.00;;;;;14.38;40.17;101713.25;4980239;28;45228;-66
2022/09/22 02:57:11;;;;;;;;;12.25;10.50;;;;;14.37;40.45;101706.22;4964866;28;59995;-66
2022/09/22 02:59:36;;;;;;;;;8.75;8.50;;;;;14.35;40.39;101708.00;4979899;28;53491;-66
2022/09/22 03:02:02;;;;;;;;;9.00;9.00;;;;;14.34;40.93;101700.97;4979710;28;66224;-66
2022/09/22 03:04:28;;;;;;;;;9.25;8.75;;;;;14.32;40.31;101708.06;4962795;28;45208;-68
2022/09/22 03:06:53;;;;;;;;;11.25;10.75;;;;;14.29;40.78;101711.63;4980703;28;45411;-66
2022/09/22 03:09:18;;;;;;;;;11.25;10.25;;;;;14.29;40.79;101701.06;4979821;28;53055;-67
2022/09/22 03:11:44;;;;;;;;;10.75;9.75;;;;;14.27;40.94;101701.03;4979985;28;55353;-67
2022/09/22 03:14:09;;;;;;;;;9.25;9.25;;;;;14.26;40.97;101706.38;4980067;28;45298;-66
2022/09/22 03:16:34;;;;;;;;;12.50;10.50;;;;;14.24;40.65;101698.47;4980613;28;45290;-66
2022/09/22 03:19:00;;;;;;;;;10.50;8.00;;;;;14.20;40.55;101691.47;4979884;28;47845;-66
2022/09/22 03:21:25;;;;;;;;;12.00;10.75;;;;;14.17;40.96;101693.28;4950564;28;46001;-66
2022/09/22 03:23:50;;;;;;;;;15.00;11.00;;;;;14.18;40.66;101687.97;4980041;28;45426;-67
2022/09/22 03:26:16;;;;;;;;;13.75;10.00;;;;;14.16;41.01;101694.19;4980051;28;45521;-67
2022/09/22 03:28:42;;;;;;;;;11.75;10.25;;;;;14.16;41.03;101695.03;4979974;28;45412;-67
2022/09/22 03:31:09;;;;;;;;;5.75;5.75;;;;;14.11;40.64;101687.19;4980097;28;45427;-67
2022/09/22 03:33:34;;;;;;;;;15.00;11.50;;;;;14.12;40.73;101694.22;4979953;28;45436;-67
2022/09/22 03:36:00;;;;;;;;;12.75;12.25;;;;;14.10;40.92;101688.09;4980127;28;45321;-67
2022/09/22 03:38:25;;;;;;;;;11.25;11.25;;;;;14.09;41.10;101693.41;4979929;28;45405;-66
2022/09/22 03:40:51;;;;;;;;;10.25;10.25;;;;;14.06;41.08;101686.38;4979783;28;46519;-66
2022/09/22 03:43:17;;;;;;;;;11.75;11.00;;;;;14.07;40.92;101681.97;4979902;28;45259;-67
2022/09/22 03:45:43;;;;;;;;;14.75;11.00;;;;;14.02;40.79;101687.31;4979816;28;45252;-67
2022/09/22 03:48:08;;;;;;;;;13.00;10.00;;;;;14.03;40.94;101691.69;4979889;28;45368;-67
2022/09/22 03:50:33;;;;;;;;;12.25;11.00;;;;;14.01;41.34;101679.41;4979699;28;47045;-67
2022/09/22 03:52:59;;;;;;;;;12.50;11.75;;;;;13.96;40.79;101677.69;4979808;28;45442;-67
2022/09/22 03:55:24;;;;;;;;;13.00;11.25;;;;;13.98;41.02;101685.59;4983367;28;45358;-67
2022/09/22 03:57:49;;;;;;;;;13.25;10.50;;;;;13.96;41.38;101688.28;4970788;28;45517;-67
2022/09/22 04:00:15;;;;;;;;;13.75;11.50;;;;;13.92;41.35;101683.94;4982030;28;45266;-67
2022/09/22 04:02:42;;;;;;;;;14.00;13.00;;;;;13.92;41.27;101683.94;4983144;28;45339;-67
2022/09/22 04:05:08;;;;;;;;;15.00;14.50;;;;;13.90;41.50;101680.44;4983478;28;45415;-67
2022/09/22 04:07:33;;;;;;;;;12.50;9.75;;;;;13.90;41.14;101676.88;4983062;28;45408;-67
2022/09/22 04:09:59;;;;;;;;;15.25;13.50;;;;;13.87;41.13;101676.94;4982650;28;46111;-67
2022/09/22 04:12:24;;;;;;;;;19.50;18.50;;;;;13.87;41.46;101692.78;4982925;28;45259;-68
2022/09/22 04:14:49;;;;;;;;;20.25;19.50;;;;;13.83;41.80;101681.38;4983325;28;45244;-67
2022/09/22 04:17:14;;;;;;;;;12.00;10.50;;;;;13.80;41.52;101676.16;4983093;28;45562;-67
2022/09/22 04:19:40;;;;;;;;;13.75;11.00;;;;;13.80;41.87;101679.66;4982658;28;45283;-67
2022/09/22 04:22:05;;;;;;;;;11.25;10.75;;;;;13.79;41.78;101682.34;4965148;28;45260;-67
2022/09/22 04:24:31;;;;;;;;;9.25;8.50;;;;;13.79;41.89;101682.34;4982754;28;45351;-69
2022/09/22 04:26:57;;;;;;;;;14.75;13.00;;;;;13.76;41.59;101677.97;4982767;28;45369;-67
2022/09/22 04:29:22;;;;;;;;;11.50;11.50;;;;;13.73;41.43;101674.47;4982624;28;46210;-67
2022/09/22 04:31:48;;;;;;;;;15.50;14.75;;;;;13.69;41.78;101676.28;4982771;28;45224;-67
2022/09/22 04:34:13;;;;;;;;;11.25;11.25;;;;;13.71;41.81;101670.97;4982842;28;45501;-67
2022/09/22 04:36:39;;;;;;;;;13.00;12.00;;;;;13.69;42.05;101678.06;4982552;28;45377;-68
2022/09/22 04:39:04;;;;;;;;;14.00;12.50;;;;;13.67;42.13;101671.91;4982190;28;52230;-67
2022/09/22 04:41:30;;;;;;;;;14.75;12.25;;;;;13.64;41.99;101667.53;4982429;28;45576;-66
2022/09/22 04:43:55;;;;;;;;;15.75;13.00;;;;;13.64;41.86;101672.81;4982640;28;45311;-68
2022/09/22 04:46:21;;;;;;;;;12.00;12.00;;;;;13.61;41.94;101660.53;4982467;28;45410;-68
2022/09/22 04:48:46;;;;;;;;;12.75;12.75;;;;;13.60;42.30;101671.97;4982483;28;46229;-68
2022/09/22 04:51:12;;;;;;;;;16.00;15.50;;;;;13.60;42.14;101671.13;4982402;28;45263;-68
2022/09/22 04:53:37;;;;;;;;;13.25;12.25;;;;;13.56;42.17;101670.28;4982492;28;45418;-68
2022/09/22 04:56:03;;;;;;;;;11.50;10.50;;;;;13.56;42.12;101672.03;4982321;28;45529;-68
2022/09/22 04:58:28;;;;;;;;;15.00;13.50;;;;;13.54;41.99;101668.56;4972109;28;46881;-68
2022/09/22 05:00:54;;;;;;;;;13.25;12.00;;;;;13.52;42.56;101676.50;4979201;28;45170;-68
2022/09/22 05:03:20;;;;;;;;;15.00;15.00;;;;;13.51;42.37;101669.47;4982496;28;45276;-68
2022/09/22 05:05:46;;;;;;;;;14.50;14.50;;;;;13.48;42.36;101666.84;4982028;28;45577;-68
2022/09/22 05:08:12;;;;;;;;;13.00;12.75;;;;;13.47;42.08;101670.38;4982097;28;46403;-68
2022/09/22 05:10:38;;;;;;;;;14.75;13.00;;;;;13.46;42.30;101680.06;4981920;28;45713;-68
2022/09/22 05:13:04;;;;;;;;;12.00;11.75;;;;;13.42;42.42;101664.28;4964822;28;45394;-68
2022/09/22 05:15:31;;;;;;;;;16.25;12.75;;;;;13.43;42.43;101680.13;4982105;28;45345;-68
2022/09/22 05:17:57;;;;;;;;;10.00;9.75;;;;;13.43;42.35;101684.50;4964278;28;46812;-68
2022/09/22 05:20:22;;;;;;;;;13.00;13.00;;;;;13.41;42.35;101681.00;4981688;28;45311;-67
2022/09/22 05:22:48;;;;;;;;;10.50;8.75;;;;;13.37;42.55;101677.53;4963578;28;45327;-68
2022/09/22 05:25:16;;;;;;;;;11.00;10.00;;;;;13.37;42.48;101679.25;4981898;28;45180;-67
2022/09/22 05:27:46;;;;;;;;;13.75;12.50;;;;;13.32;42.45;101677.56;4981921;28;45642;-68
2022/09/22 05:30:12;;;;;;;;;15.75;13.50;;;;;13.34;42.64;101680.16;4985404;28;45503;-68
2022/09/22 05:32:38;;;;;;;;;11.75;11.50;;;;;13.30;42.45;101687.25;4984229;28;45473;-68
2022/09/22 05:35:03;;;;;;;;;17.00;12.00;;;;;13.30;42.59;101684.59;4990805;28;45507;-68
2022/09/22 05:37:29;;;;;;;;;12.75;12.75;;;;;13.26;42.98;101688.16;4980643;28;45910;-68
2022/09/22 05:39:54;;;;;;;;;14.25;12.50;;;;;13.27;42.83;101689.94;4978847;28;45372;-68
2022/09/22 05:42:22;;;;;;;;;10.75;9.50;;;;;13.24;42.90;101687.28;4981905;28;45225;-64
2022/09/22 05:44:48;;;;;;;;;12.25;12.25;;;;;13.25;43.15;101696.09;4963616;28;45975;-66
2022/09/22 05:47:13;;;;;;;;;13.00;12.25;;;;;13.24;42.75;101699.63;4981779;28;45493;-67
2022/09/22 05:49:38;;;;;;;;;9.00;9.00;;;;;13.21;43.00;101695.25;4981380;28;47222;-67
2022/09/22 05:52:04;;;;;;;;;16.25;14.75;;;;;13.21;42.66;101697.03;4981767;28;45283;-68
2022/09/22 05:54:29;;;;;;;;;14.00;12.75;;;;;13.20;42.87;101706.72;4980592;28;45411;-64
2022/09/22 05:56:54;;;;;;;;;14.00;14.00;;;;;13.19;43.08;101712.00;4981306;28;50153;-69
2022/09/22 05:59:20;;;;;;;;;15.00;14.00;;;;;13.17;42.86;101712.03;4964592;28;45390;-67
2022/09/22 06:01:45;;;;;;;;;17.50;15.00;;;;;13.17;42.89;101714.66;4971873;28;45311;-60
2022/09/22 06:04:10;;;;;;;;;18.00;15.00;;;;;13.18;43.02;101708.47;4981198;28;45446;-61
2022/09/22 06:06:36;;;;;;;;;15.75;13.50;;;;;13.16;43.17;101711.13;4981302;28;46890;-61
2022/09/22 06:09:01;;;;;;;;;17.00;14.50;;;;;13.15;43.01;101711.16;4980650;28;52847;-60
2022/09/22 06:11:26;;;;;;;;;16.00;13.75;;;;;13.16;43.05;101710.28;4981453;28;46026;-60
2022/09/22 06:13:52;;;;;;;;;16.75;14.00;;;;;13.15;43.34;101704.09;4979899;28;45449;-60
2022/09/22 06:16:18;;;;;;;;;14.00;13.75;;;;;13.19;43.32;101709.38;4980627;28;47212;-60
2022/09/22 06:18:45;;;;;;;;;18.00;17.00;;;;;13.18;43.24;101711.13;4980780;28;45246;-60
2022/09/22 06:21:10;;;;;;;;;16.25;15.00;;;;;13.20;43.00;101713.75;4981020;28;45268;-60
2022/09/22 06:23:36;;;;;;;;;16.50;13.75;;;;;13.19;43.45;101710.22;4980214;28;50541;-68
2022/09/22 06:26:01;;;;;;;;;16.25;16.00;;;;;13.19;43.22;101707.59;4980982;28;46473;-67
2022/09/22 06:28:26;;;;;;;;;18.00;17.00;;;;;13.23;43.27;101709.34;4963386;28;45295;-69
2022/09/22 06:30:52;;;;;;;;;14.75;14.00;;;;;13.16;43.38;101700.56;4981375;28;45304;-70
2022/09/22 06:33:17;;;;;;;;;15.75;15.50;;;;;13.24;43.44;101702.28;4963210;28;45442;-69
2022/09/22 06:35:44;;;;;;;;;20.00;20.00;;;;;13.28;43.71;101709.25;4980934;28;46447;-69
2022/09/22 06:38:13;;;;;;;;;23.50;20.50;;;;;13.28;43.39;101709.25;4980427;28;45363;-70
2022/09/22 06:40:40;;;;;;;;;20.25;19.75;;;;;13.31;43.37;101704.84;4981060;28;45233;-70
2022/09/22 06:43:11;;;;;;;;;25.25;21.75;;;;;13.33;43.44;101689.88;4980508;28;45240;-70
2022/09/22 06:45:42;;;;;;;;;23.25;21.00;;;;;13.39;43.61;101693.34;4980826;28;46099;-70
2022/09/22 06:48:11;;;;;;;;;21.50;18.00;;;;;13.43;43.57;101695.06;4963013;28;45369;-70
2022/09/22 06:50:37;;;;;;;;;25.75;22.75;;;;;13.44;43.38;101684.47;4978959;28;45733;-70
2022/09/22 06:53:06;;;;;;;;;18.75;18.50;;;;;13.46;43.74;101681.84;4979604;28;45612;-70
2022/09/22 06:55:31;;;;;;;;;20.75;17.25;;;;;13.51;43.65;101690.59;4962856;28;46343;-70
2022/09/22 06:57:57;;;;;;;;;17.00;15.25;;;;;13.52;43.74;101691.44;4969537;28;45340;-70
2022/09/22 07:00:27;;;;;;;;;15.00;14.25;;;;;13.57;43.37;101690.53;4972607;28;45248;-71
2022/09/22 07:02:59;;;;;;;;;15.50;14.75;;;;;13.61;43.41;101691.34;4980344;28;45503;-70
2022/09/22 07:05:25;;;;;;;;;17.75;16.50;;;;;13.64;43.85;101694.81;4980363;28;46054;-70
2022/09/22 07:07:50;;;;;;;;;20.75;20.75;;;;;13.69;43.48;101701.84;4980047;28;45360;-71
2022/09/22 07:10:15;;;;;;;;;18.00;16.50;;;;;13.67;43.50;101685.97;4980158;28;54773;-70
2022/09/22 07:12:41;;;;;;;;;18.25;18.00;;;;;13.76;43.65;101695.56;4980597;28;45238;-71
2022/09/22 07:15:07;;;;;;;;;15.50;14.25;;;;;13.76;43.56;101690.28;4980335;28;46291;-69
2022/09/22 07:17:34;;;;;;;;;16.00;13.00;;;;;13.84;43.40;101704.28;4979652;28;45342;-73
2022/09/22 07:19:59;;;;;;;;;15.00;14.75;;;;;13.87;43.34;101698.94;4980277;28;45422;-70
2022/09/22 07:22:25;;;;;;;;;15.25;13.75;;;;;13.89;43.83;101691.88;4967381;28;45245;-69
2022/09/22 07:24:51;;;;;;;;;15.25;14.50;;;;;13.95;43.84;101691.81;4979277;28;45298;-69
2022/09/22 07:27:21;;;;;;;;;14.00;13.00;;;;;13.96;43.52;101690.91;4979992;28;45332;-70
2022/09/22 07:29:47;;;;;;;;;10.75;10.75;;;;;14.03;43.51;101694.34;4982631;28;45252;-71
2022/09/22 07:32:13;;;;;;;;;10.25;10.00;;;;;14.07;43.08;101693.41;4983596;28;45437;-70
2022/09/22 07:34:38;;;;;;;;;12.50;12.50;;;;;14.11;43.32;101691.59;4982183;28;46275;-71
2022/09/22 07:37:03;;;;;;;;;12.25;11.50;;;;;14.16;43.35;101696.81;4983640;28;45408;-70
2022/09/22 07:39:29;;;;;;;;;14.00;13.00;;;;;14.19;43.35;101692.38;4965583;28;45272;-70
2022/09/22 07:41:54;;;;;;;;;16.75;13.75;;;;;14.24;43.56;101692.31;4983647;28;45189;-71
2022/09/22 07:47:03;;;;;;;;;15.50;12.75;;;;;14.35;43.45;101697.44;4983403;28;45252;-70
2022/09/22 07:49:29;;;;;;;;;12.00;11.75;;;;;14.40;43.04;101695.59;4983467;28;45169;-70
2022/09/22 07:51:56;;;;;;;;;12.75;12.75;;;;;14.45;43.02;101693.75;4983529;28;45208;-70
2022/09/22 07:54:22;;;;;;;;;15.75;13.75;;;;;14.49;43.25;101690.19;4983220;28;45423;-71
2022/09/22 07:56:55;;;;;;;;;14.00;12.00;;;;;14.56;42.95;101688.28;4983308;28;45312;-71
2022/09/22 07:59:20;;;;;;;;;14.50;13.50;;;;;14.57;43.04;101682.13;4966539;28;45384;-69
2022/09/22 08:01:47;;;;;;;;;12.75;11.00;;;;;14.65;43.19;101685.53;4963787;28;45444;-69
2022/09/22 08:04:17;;;;;;;;;17.00;15.00;;;;;14.74;42.95;101700.38;4966360;28;46362;-70
2022/09/22 08:06:51;;;;;;;;;23.00;19.25;;;;;14.79;42.95;101694.13;4983049;28;45263;-70
2022/09/22 08:09:17;;;;;;;;;13.75;11.75;;;;;14.88;43.44;101694.84;4965398;28;45371;-71
2022/09/22 08:11:47;;;;;;;;;13.25;12.25;;;;;14.93;43.50;101688.59;4983168;28;45461;-70
2022/09/22 08:14:13;;;;;;;;;14.00;13.00;;;;;14.98;42.92;101693.81;4964664;28;45516;-70
2022/09/22 08:16:39;;;;;;;;;11.25;10.25;;;;;15.08;43.34;101694.50;4983022;28;45492;-70
2022/09/22 08:19:11;;;;;;;;;14.00;12.50;;;;;15.16;43.14;101697.03;4982752;28;45382;-71
2022/09/22 08:21:41;;;;;;;;;13.25;10.00;;;;;15.19;43.26;101687.25;4983033;28;45535;-71
2022/09/22 08:24:08;;;;;;;;;17.25;16.25;;;;;15.30;42.99;101691.50;4964939;28;47753;-71
2022/09/22 08:26:35;;;;;;;;;13.00;10.75;;;;;15.35;42.84;101689.63;4982913;28;45229;-71
2022/09/22 08:29:02;;;;;;;;;17.25;14.75;;;;;15.42;42.90;101689.47;4981804;28;45231;-71
2022/09/22 08:31:28;;;;;;;;;13.00;12.75;;;;;15.49;43.11;101690.22;4982830;28;45246;-71
2022/09/22 08:33:54;;;;;;;;;18.75;14.50;;;;;15.56;42.96;101691.84;4982719;28;45414;-70
2022/09/22 08:36:21;;;;;;;;;13.00;12.25;;;;;15.64;43.14;101693.47;4982818;28;45388;-71
2022/09/22 08:38:48;;;;;;;;;14.25;12.50;;;;;15.71;43.22;101687.13;4981367;28;45323;-71
2022/09/22 08:41:35;;;;;;;;;16.75;13.00;;;;;15.78;42.72;101688.75;4982438;28;45320;-71
2022/09/22 08:44:09;;;;;;;;;15.75;13.50;;;;;15.85;42.68;101690.41;4982245;28;46586;-71
2022/09/22 08:46:37;;;;;;;;;11.25;10.25;;;;;15.91;42.71;101684.97;4982386;28;45265;-71
2022/09/22 08:51:53;;;;;;;;;16.00;11.25;;;;;16.09;42.72;101683.69;4982562;28;45160;-72
2022/09/22 08:54:24;;;;;;;;;12.75;9.75;;;;;16.20;42.63;101686.13;4982029;28;47234;-71
2022/09/22 08:57:20;;;;;;;;;12.00;10.50;;;;;16.33;42.79;101691.16;4982521;28;45335;-71
2022/09/22 08:59:54;;;;;;;;;10.00;8.25;;;;;16.43;42.45;101692.66;4953160;28;45411;-72
2022/09/22 09:02:51;;;;;;;;;12.75;12.00;;;;;16.54;42.66;101682.66;4962564;28;45279;-71
2022/09/22 09:05:41;;;;;;;;;10.00;7.75;;;;;16.70;42.57;101684.94;4962864;28;47021;-71
2022/09/22 09:08:27;;;;;;;;;7.00;5.75;;;;;16.77;42.70;101673.25;4962549;28;45225;-71
2022/09/22 09:10:55;;;;;;;;;8.50;8.25;;;;;16.93;42.26;101683.50;4962776;28;45188;-71
2022/09/22 09:13:42;;;;;;;;;10.25;8.50;;;;;17.06;42.55;101687.59;4962582;28;45520;-71
2022/09/22 09:16:36;;;;;;;;;11.75;8.75;;;;;17.19;42.60;101689.03;4962933;28;46723;-71
2022/09/22 09:19:13;;;;;;;;;10.00;9.25;;;;;17.32;42.40;101681.59;4961328;28;45287;-71
2022/09/22 09:21:46;;;;;;;;;8.00;8.00;;;;;17.46;42.33;101686.53;4971373;28;45293;-71
2022/09/22 09:24:24;;;;;;;;;6.50;6.25;;;;;17.57;42.63;101678.22;4962558;28;45451;-71
2022/09/22 09:26:51;;;;;;;;;9.50;6.25;;;;;17.72;42.24;101682.22;4962393;28;46188;-72
2022/09/22 09:29:23;;;;;;;;;7.50;6.50;;;;;17.86;42.09;101681.81;4962231;28;45315;-72
2022/09/22 09:31:55;;;;;;;;;8.25;7.25;;;;;18.01;42.05;101689.38;4962440;28;45291;-71
2022/09/22 09:34:27;;;;;;;;;10.75;8.25;;;;;18.17;41.89;101686.25;4962574;28;45291;-71
2022/09/22 09:37:14;;;;;;;;;9.75;6.75;;;;;18.31;42.28;101684.03;4962061;28;46409;-71
2022/09/22 09:39:43;;;;;;;;;8.50;7.25;;;;;18.45;41.67;101688.03;4961978;28;45484;-70
2022/09/22 09:42:32;;;;;;;;;9.00;9.00;;;;;18.60;41.77;101686.66;4961085;28;45419;-70
2022/09/22 09:45:01;;;;;;;;;11.75;9.25;;;;;18.72;41.62;101675.63;4962239;28;46452;-70
2022/09/22 09:48:00;;;;;;;;;11.50;8.00;;;;;18.86;41.64;101668.97;4962110;28;45378;-71
2022/09/22 09:50:30;;;;;;;;;8.00;8.00;;;;;18.97;41.57;101669.50;4960636;28;45235;-70
2022/09/22 09:52:58;;;;;;;;;8.75;7.50;;;;;19.13;41.86;101675.13;4961306;28;45329;-71
2022/09/22 09:55:27;;;;;;;;;8.25;8.00;;;;;19.27;41.43;101671.97;4962310;28;45323;-70
2022/09/22 09:58:04;;;;;;;;;7.75;6.50;;;;;19.43;41.60;101661.63;4955217;28;46074;-70
2022/09/22 10:00:30;;;;;;;;;5.25;5.25;;;;;19.54;41.38;101656.78;4954552;28;45350;-71
2022/09/22 10:03:02;;;;;;;;;7.75;6.00;;;;;19.72;40.89;101660.56;4960787;28;45354;-70
2022/09/22 10:05:29;;;;;;;;;7.50;7.50;;;;;19.87;41.16;101650.25;4960709;28;45481;-71
2022/09/22 10:08:01;;;;;;;;;8.25;5.50;;;;;20.02;40.74;101656.78;4960286;28;47512;-70
2022/09/22 10:10:38;;;;;;;;;6.50;6.50;;;;;20.13;41.33;101638.56;4961822;28;45289;-71
2022/09/22 10:13:03;;;;;;;;;6.75;6.00;;;;;20.29;40.69;101642.34;4962027;28;45275;-70
2022/09/22 10:15:34;;;;;;;;;8.00;8.00;;;;;20.42;40.70;101632.00;4960347;28;45690;-70
2022/09/22 10:17:59;;;;;;;;;8.25;5.00;;;;;20.58;40.86;101637.59;4961990;28;45447;-70
2022/09/22 10:20:32;;;;;;;;;8.50;5.50;;;;;20.74;40.18;101643.19;4961229;28;45201;-71
2022/09/22 10:23:19;;;;;;;;;7.25;6.75;;;;;20.90;40.50;101639.84;4961614;28;45319;-72
2022/09/22 10:25:45;;;;;;;;;6.00;5.25;;;;;21.02;39.86;101627.75;4961120;28;45344;-70
2022/09/22 10:28:19;;;;;;;;;6.00;5.00;;;;;21.13;40.05;101621.94;4962431;28;46383;-69
2022/09/22 10:30:58;;;;;;;;;5.50;5.25;;;;;21.26;40.27;101626.66;4966440;28;45204;-70
2022/09/22 10:33:23;;;;;;;;;8.00;5.25;;;;;21.38;39.83;101621.69;4967809;28;45342;-68
2022/09/22 10:36:08;;;;;;;;;7.00;7.00;;;;;21.50;39.37;101625.63;4970034;28;45540;-68
2022/09/22 10:38:38;;;;;;;;;9.75;8.00;;;;;21.63;39.37;101629.47;4966892;28;46525;-67
2022/09/22 10:41:11;;;;;;;;;6.00;6.00;;;;;21.73;39.45;101617.38;4964663;28;45462;-71
2022/09/22 10:43:51;;;;;;;;;6.00;5.75;;;;;21.92;39.19;101613.84;4967863;28;45544;-73
2022/09/22 10:46:33;;;;;;;;;8.00;5.25;;;;;22.07;39.13;101617.59;4967872;28;45824;-72
2022/09/22 10:49:16;;;;;;;;;3.25;2.75;;;;;22.25;39.31;101610.47;4967406;28;45976;-72
2022/09/22 10:51:56;;;;;;;;;3.75;2.00;;;;;22.43;39.17;101608.72;4965889;28;45389;-72
2022/09/22 10:54:40;;;;;;;;;3.50;3.00;;;;;22.60;39.05;101605.16;4968172;28;45411;-71
2022/09/22 10:57:17;;;;;;;;;3.75;3.75;;;;;22.77;38.92;101596.25;4966979;28;45557;-70
2022/09/22 11:00:18;;;;;;;;;4.75;4.00;;;;;22.99;39.03;101596.00;4967630;28;47320;-69
2022/09/22 11:02:44;;;;;;;;;5.75;4.25;;;;;23.23;38.87;101587.59;4965199;28;45411;-69
2022/09/22 11:12:14;;;;;;;;;4.00;4.00;;;;;23.49;39.23;101588.84;4966440;28;45306;-68
2022/09/22 11:14:14;;;;;;;;;5.00;3.50;;;;;24.52;39.02;101578.53;4964262;28;45916;-68
2022/09/22 11:16:52;;;;;;;;;6.75;5.50;;;;;24.80;38.78;101576.91;4963260;28;45467;-68
2022/09/22 11:19:42;;;;;;;;;3.00;3.00;;;;;25.13;38.20;101579.34;4967734;28;45530;-68
2022/09/22 11:22:16;;;;;;;;;4.50;3.00;;;;;25.43;38.15;101582.88;4966527;28;46205;-68
2022/09/22 11:25:06;;;;;;;;;3.00;3.00;;;;;25.69;38.48;101561.50;4968094;28;45354;-70
2022/09/22 11:27:40;;;;;;;;;3.00;3.00;;;;;26.03;37.70;101567.34;4968189;28;45326;-67
2022/09/22 11:30:19;;;;;;;;;6.50;5.25;;;;;26.31;38.34;101561.00;4963023;28;45647;-68
2022/09/22 11:33:01;;;;;;;;;0.00;0.00;;;;;26.65;37.61;101563.19;4966538;28;45718;-71
2022/09/22 11:35:41;;;;;;;;;2.75;1.75;;;;;26.96;37.81;101564.63;4967547;28;46154;-70
2022/09/22 11:38:38;;;;;;;;;4.00;3.00;;;;;27.41;37.55;101562.34;4963365;28;45430;-67
2022/09/22 11:41:29;;;;;;;;;4.75;4.00;;;;;27.86;38.17;101564.44;4960634;28;45302;-69
2022/09/22 11:44:14;;;;;;;;;2.00;2.00;;;;;28.35;37.95;101565.31;4960126;28;46204;-69